sensor_id;sensor_type;location;lat;lon;timestamp;P1;durP1;ratioP1;P2;durP2;ratioP2
81864;SDS011;71313;43.514;1.500;2024-01-27T00:01:13;37.25;;;16.25;;
81864;SDS011;71313;43.514;1.500;2024-01-27T00:03:38;35.20;;;15.07;;
81864;SDS011;71313;43.514;1.500;2024-01-27T00:06:04;35.70;;;15.98;;
81864;SDS011;71313;43.514;1.500;2024-01-27T00:08:29;36.50;;;16.17;;
81864;SDS011;71313;43.514;1.500;2024-01-27T00:10:55;35.92;;;15.63;;
81864;SDS011;71313;43.514;1.500;2024-01-27T00:13:21;37.58;;;15.35;;
81864;SDS011;71313;43.514;1.500;2024-01-27T00:15:46;35.30;;;15.13;;
81864;SDS011;71313;43.514;1.500;2024-01-27T00:18:11;38.40;;;15.80;;
81864;SDS011;71313;43.514;1.500;2024-01-27T00:20:37;43.78;;;16.17;;
81864;SDS011;71313;43.514;1.500;2024-01-27T00:23:03;45.28;;;15.65;;
81864;SDS011;71313;43.514;1.500;2024-01-27T00:25:29;39.00;;;16.08;;
81864;SDS011;71313;43.514;1.500;2024-01-27T00:27:54;39.92;;;15.05;;
81864;SDS011;71313;43.514;1.500;2024-01-27T00:30:19;37.47;;;16.02;;
81864;SDS011;71313;43.514;1.500;2024-01-27T00:32:45;38.08;;;15.30;;
81864;SDS011;71313;43.514;1.500;2024-01-27T00:35:10;49.35;;;15.88;;
81864;SDS011;71313;43.514;1.500;2024-01-27T00:37:39;43.53;;;16.48;;
81864;SDS011;71313;43.514;1.500;2024-01-27T00:40:07;45.10;;;16.38;;
81864;SDS011;71313;43.514;1.500;2024-01-27T00:42:33;40.22;;;16.23;;
81864;SDS011;71313;43.514;1.500;2024-01-27T00:44:59;45.60;;;15.45;;
81864;SDS011;71313;43.514;1.500;2024-01-27T00:47:24;38.40;;;14.48;;
81864;SDS011;71313;43.514;1.500;2024-01-27T00:49:50;40.97;;;14.75;;
81864;SDS011;71313;43.514;1.500;2024-01-27T00:52:15;37.08;;;13.82;;
81864;SDS011;71313;43.514;1.500;2024-01-27T00:54:41;42.22;;;15.43;;
81864;SDS011;71313;43.514;1.500;2024-01-27T00:57:06;34.08;;;14.90;;
81864;SDS011;71313;43.514;1.500;2024-01-27T00:59:31;35.45;;;13.27;;
81864;SDS011;71313;43.514;1.500;2024-01-27T01:01:57;36.10;;;13.63;;
81864;SDS011;71313;43.514;1.500;2024-01-27T01:04:22;44.72;;;13.90;;
81864;SDS011;71313;43.514;1.500;2024-01-27T01:06:47;41.58;;;13.75;;
81864;SDS011;71313;43.514;1.500;2024-01-27T01:09:13;36.97;;;14.23;;
81864;SDS011;71313;43.514;1.500;2024-01-27T01:11:38;34.35;;;12.43;;
81864;SDS011;71313;43.514;1.500;2024-01-27T01:14:04;33.15;;;13.25;;
81864;SDS011;71313;43.514;1.500;2024-01-27T01:16:29;33.00;;;11.52;;
81864;SDS011;71313;43.514;1.500;2024-01-27T01:18:55;36.67;;;12.50;;
81864;SDS011;71313;43.514;1.500;2024-01-27T01:21:20;34.20;;;12.05;;
81864;SDS011;71313;43.514;1.500;2024-01-27T01:23:45;22.65;;;9.43;;
81864;SDS011;71313;43.514;1.500;2024-01-27T01:26:11;24.20;;;10.43;;
81864;SDS011;71313;43.514;1.500;2024-01-27T01:28:36;22.50;;;8.73;;
81864;SDS011;71313;43.514;1.500;2024-01-27T01:31:02;23.52;;;9.75;;
81864;SDS011;71313;43.514;1.500;2024-01-27T01:33:27;28.15;;;9.18;;
81864;SDS011;71313;43.514;1.500;2024-01-27T01:35:53;24.20;;;10.48;;
81864;SDS011;71313;43.514;1.500;2024-01-27T01:38:18;26.23;;;9.23;;
81864;SDS011;71313;43.514;1.500;2024-01-27T01:40:44;26.02;;;9.23;;
81864;SDS011;71313;43.514;1.500;2024-01-27T01:43:09;23.90;;;8.73;;
81864;SDS011;71313;43.514;1.500;2024-01-27T01:45:36;24.42;;;9.32;;
81864;SDS011;71313;43.514;1.500;2024-01-27T01:48:02;27.02;;;9.55;;
81864;SDS011;71313;43.514;1.500;2024-01-27T01:50:27;25.88;;;8.90;;
81864;SDS011;71313;43.514;1.500;2024-01-27T01:52:53;20.33;;;7.72;;
81864;SDS011;71313;43.514;1.500;2024-01-27T01:55:19;22.15;;;7.60;;
81864;SDS011;71313;43.514;1.500;2024-01-27T01:57:45;19.83;;;7.47;;
81864;SDS011;71313;43.514;1.500;2024-01-27T02:00:11;22.40;;;7.68;;
81864;SDS011;71313;43.514;1.500;2024-01-27T02:02:38;20.05;;;7.88;;
81864;SDS011;71313;43.514;1.500;2024-01-27T02:05:03;26.75;;;8.55;;
81864;SDS011;71313;43.514;1.500;2024-01-27T02:07:29;22.90;;;8.00;;
81864;SDS011;71313;43.514;1.500;2024-01-27T02:09:54;17.65;;;7.65;;
81864;SDS011;71313;43.514;1.500;2024-01-27T02:12:19;21.17;;;7.07;;
81864;SDS011;71313;43.514;1.500;2024-01-27T02:14:45;21.25;;;7.00;;
81864;SDS011;71313;43.514;1.500;2024-01-27T02:17:11;16.38;;;6.20;;
81864;SDS011;71313;43.514;1.500;2024-01-27T02:19:37;23.42;;;7.88;;
81864;SDS011;71313;43.514;1.500;2024-01-27T02:22:02;17.90;;;7.07;;
81864;SDS011;71313;43.514;1.500;2024-01-27T02:24:27;19.42;;;6.28;;
81864;SDS011;71313;43.514;1.500;2024-01-27T02:26:53;16.60;;;7.03;;
81864;SDS011;71313;43.514;1.500;2024-01-27T02:29:19;15.88;;;6.70;;
81864;SDS011;71313;43.514;1.500;2024-01-27T02:31:44;14.88;;;5.97;;
81864;SDS011;71313;43.514;1.500;2024-01-27T02:34:10;13.82;;;5.88;;
81864;SDS011;71313;43.514;1.500;2024-01-27T02:36:35;14.45;;;5.90;;
81864;SDS011;71313;43.514;1.500;2024-01-27T02:39:01;14.43;;;5.68;;
81864;SDS011;71313;43.514;1.500;2024-01-27T02:41:26;14.20;;;6.15;;
81864;SDS011;71313;43.514;1.500;2024-01-27T02:43:52;16.30;;;5.03;;
81864;SDS011;71313;43.514;1.500;2024-01-27T02:46:17;12.77;;;4.95;;
81864;SDS011;71313;43.514;1.500;2024-01-27T02:48:44;14.57;;;5.20;;
81864;SDS011;71313;43.514;1.500;2024-01-27T02:51:10;19.83;;;5.72;;
81864;SDS011;71313;43.514;1.500;2024-01-27T02:53:35;16.33;;;5.63;;
81864;SDS011;71313;43.514;1.500;2024-01-27T02:56:00;12.40;;;5.63;;
81864;SDS011;71313;43.514;1.500;2024-01-27T02:58:26;12.73;;;5.30;;
81864;SDS011;71313;43.514;1.500;2024-01-27T03:00:51;22.67;;;5.53;;
81864;SDS011;71313;43.514;1.500;2024-01-27T03:03:17;12.90;;;5.43;;
81864;SDS011;71313;43.514;1.500;2024-01-27T03:05:42;13.93;;;5.53;;
81864;SDS011;71313;43.514;1.500;2024-01-27T03:08:08;19.92;;;5.78;;
81864;SDS011;71313;43.514;1.500;2024-01-27T03:10:33;13.57;;;5.90;;
81864;SDS011;71313;43.514;1.500;2024-01-27T03:12:58;14.98;;;5.60;;
81864;SDS011;71313;43.514;1.500;2024-01-27T03:15:24;12.23;;;4.60;;
81864;SDS011;71313;43.514;1.500;2024-01-27T03:17:49;14.95;;;5.10;;
81864;SDS011;71313;43.514;1.500;2024-01-27T03:20:14;14.45;;;5.05;;
81864;SDS011;71313;43.514;1.500;2024-01-27T03:22:40;11.68;;;5.05;;
81864;SDS011;71313;43.514;1.500;2024-01-27T03:25:07;13.98;;;5.38;;
81864;SDS011;71313;43.514;1.500;2024-01-27T03:27:33;11.63;;;5.10;;
81864;SDS011;71313;43.514;1.500;2024-01-27T03:29:59;13.23;;;4.85;;
81864;SDS011;71313;43.514;1.500;2024-01-27T03:32:26;15.38;;;5.13;;
81864;SDS011;71313;43.514;1.500;2024-01-27T03:34:52;15.40;;;4.63;;
81864;SDS011;71313;43.514;1.500;2024-01-27T03:37:17;18.40;;;5.07;;
81864;SDS011;71313;43.514;1.500;2024-01-27T03:39:43;11.30;;;4.88;;
81864;SDS011;71313;43.514;1.500;2024-01-27T03:42:08;15.70;;;4.95;;
81864;SDS011;71313;43.514;1.500;2024-01-27T03:44:33;12.48;;;4.70;;
81864;SDS011;71313;43.514;1.500;2024-01-27T03:46:59;10.90;;;4.63;;
81864;SDS011;71313;43.514;1.500;2024-01-27T03:49:25;12.48;;;4.45;;
81864;SDS011;71313;43.514;1.500;2024-01-27T03:51:50;15.20;;;4.95;;
81864;SDS011;71313;43.514;1.500;2024-01-27T03:54:16;11.73;;;4.70;;
81864;SDS011;71313;43.514;1.500;2024-01-27T03:56:41;11.38;;;4.35;;
81864;SDS011;71313;43.514;1.500;2024-01-27T03:59:07;16.65;;;4.22;;
81864;SDS011;71313;43.514;1.500;2024-01-27T04:01:34;18.42;;;4.80;;
81864;SDS011;71313;43.514;1.500;2024-01-27T04:04:00;15.93;;;5.47;;
81864;SDS011;71313;43.514;1.500;2024-01-27T04:06:25;12.52;;;4.60;;
81864;SDS011;71313;43.514;1.500;2024-01-27T04:08:51;15.38;;;4.70;;
81864;SDS011;71313;43.514;1.500;2024-01-27T04:11:19;25.42;;;5.13;;
81864;SDS011;71313;43.514;1.500;2024-01-27T04:13:46;12.57;;;5.15;;
81864;SDS011;71313;43.514;1.500;2024-01-27T04:16:12;44.10;;;6.68;;
81864;SDS011;71313;43.514;1.500;2024-01-27T04:18:38;23.98;;;5.57;;
81864;SDS011;71313;43.514;1.500;2024-01-27T04:21:04;49.60;;;7.00;;
81864;SDS011;71313;43.514;1.500;2024-01-27T04:23:30;35.40;;;5.82;;
81864;SDS011;71313;43.514;1.500;2024-01-27T04:25:58;14.95;;;5.05;;
81864;SDS011;71313;43.514;1.500;2024-01-27T04:28:23;15.18;;;4.50;;
81864;SDS011;71313;43.514;1.500;2024-01-27T04:30:49;13.70;;;4.93;;
81864;SDS011;71313;43.514;1.500;2024-01-27T04:33:14;12.13;;;4.65;;
81864;SDS011;71313;43.514;1.500;2024-01-27T04:35:39;28.77;;;5.15;;
81864;SDS011;71313;43.514;1.500;2024-01-27T04:38:07;28.65;;;4.82;;
81864;SDS011;71313;43.514;1.500;2024-01-27T04:40:33;23.13;;;5.00;;
81864;SDS011;71313;43.514;1.500;2024-01-27T04:43:00;33.38;;;5.53;;
81864;SDS011;71313;43.514;1.500;2024-01-27T04:45:26;26.38;;;5.75;;
81864;SDS011;71313;43.514;1.500;2024-01-27T04:47:52;23.27;;;5.07;;
81864;SDS011;71313;43.514;1.500;2024-01-27T04:50:18;19.17;;;4.78;;
81864;SDS011;71313;43.514;1.500;2024-01-27T04:52:45;13.13;;;5.05;;
81864;SDS011;71313;43.514;1.500;2024-01-27T04:55:10;13.23;;;5.15;;
81864;SDS011;71313;43.514;1.500;2024-01-27T04:57:36;13.23;;;5.03;;
81864;SDS011;71313;43.514;1.500;2024-01-27T05:00:01;14.70;;;5.28;;
81864;SDS011;71313;43.514;1.500;2024-01-27T05:02:29;21.67;;;4.85;;
81864;SDS011;71313;43.514;1.500;2024-01-27T05:04:55;12.55;;;4.05;;
81864;SDS011;71313;43.514;1.500;2024-01-27T05:07:20;13.52;;;4.25;;
81864;SDS011;71313;43.514;1.500;2024-01-27T05:09:46;11.73;;;3.97;;
81864;SDS011;71313;43.514;1.500;2024-01-27T05:12:11;13.77;;;3.90;;
81864;SDS011;71313;43.514;1.500;2024-01-27T05:14:37;11.48;;;3.78;;
81864;SDS011;71313;43.514;1.500;2024-01-27T05:17:02;10.77;;;4.18;;
81864;SDS011;71313;43.514;1.500;2024-01-27T05:19:27;12.05;;;3.22;;
81864;SDS011;71313;43.514;1.500;2024-01-27T05:21:53;14.43;;;3.13;;
81864;SDS011;71313;43.514;1.500;2024-01-27T05:24:18;20.73;;;4.07;;
81864;SDS011;71313;43.514;1.500;2024-01-27T05:26:44;6.93;;;3.00;;
81864;SDS011;71313;43.514;1.500;2024-01-27T05:29:09;19.40;;;3.15;;
81864;SDS011;71313;43.514;1.500;2024-01-27T05:31:35;12.38;;;3.00;;
81864;SDS011;71313;43.514;1.500;2024-01-27T05:34:01;10.88;;;3.08;;
81864;SDS011;71313;43.514;1.500;2024-01-27T05:36:26;10.63;;;3.25;;
81864;SDS011;71313;43.514;1.500;2024-01-27T05:38:52;8.75;;;2.92;;
81864;SDS011;71313;43.514;1.500;2024-01-27T05:41:17;8.00;;;2.75;;
81864;SDS011;71313;43.514;1.500;2024-01-27T05:43:43;9.80;;;2.83;;
81864;SDS011;71313;43.514;1.500;2024-01-27T05:46:08;11.02;;;2.80;;
81864;SDS011;71313;43.514;1.500;2024-01-27T05:48:35;6.20;;;2.55;;
81864;SDS011;71313;43.514;1.500;2024-01-27T05:51:00;9.65;;;2.80;;
81864;SDS011;71313;43.514;1.500;2024-01-27T05:53:26;8.70;;;2.70;;
81864;SDS011;71313;43.514;1.500;2024-01-27T05:55:52;12.00;;;2.58;;
81864;SDS011;71313;43.514;1.500;2024-01-27T05:58:22;9.80;;;2.67;;
81864;SDS011;71313;43.514;1.500;2024-01-27T06:00:47;5.80;;;2.53;;
81864;SDS011;71313;43.514;1.500;2024-01-27T06:03:13;6.53;;;2.58;;
81864;SDS011;71313;43.514;1.500;2024-01-27T06:05:40;6.75;;;2.60;;
81864;SDS011;71313;43.514;1.500;2024-01-27T06:08:06;4.35;;;2.22;;
81864;SDS011;71313;43.514;1.500;2024-01-27T06:10:32;5.82;;;2.67;;
81864;SDS011;71313;43.514;1.500;2024-01-27T06:12:57;5.38;;;2.30;;
81864;SDS011;71313;43.514;1.500;2024-01-27T06:15:24;4.15;;;2.40;;
81864;SDS011;71313;43.514;1.500;2024-01-27T06:17:49;7.90;;;2.70;;
81864;SDS011;71313;43.514;1.500;2024-01-27T06:20:14;4.85;;;2.60;;
81864;SDS011;71313;43.514;1.500;2024-01-27T06:22:43;5.47;;;2.35;;
81864;SDS011;71313;43.514;1.500;2024-01-27T06:25:09;4.75;;;2.10;;
81864;SDS011;71313;43.514;1.500;2024-01-27T06:27:35;7.80;;;2.45;;
81864;SDS011;71313;43.514;1.500;2024-01-27T06:30:01;7.70;;;2.50;;
81864;SDS011;71313;43.514;1.500;2024-01-27T06:32:26;6.55;;;2.20;;
81864;SDS011;71313;43.514;1.500;2024-01-27T06:34:52;6.72;;;2.20;;
81864;SDS011;71313;43.514;1.500;2024-01-27T06:37:17;20.45;;;2.85;;
81864;SDS011;71313;43.514;1.500;2024-01-27T06:39:42;17.48;;;2.50;;
81864;SDS011;71313;43.514;1.500;2024-01-27T06:42:08;7.40;;;1.73;;
81864;SDS011;71313;43.514;1.500;2024-01-27T06:44:33;10.00;;;2.22;;
81864;SDS011;71313;43.514;1.500;2024-01-27T06:46:59;4.30;;;1.80;;
81864;SDS011;71313;43.514;1.500;2024-01-27T06:49:24;4.50;;;1.73;;
81864;SDS011;71313;43.514;1.500;2024-01-27T06:51:49;3.50;;;1.83;;
81864;SDS011;71313;43.514;1.500;2024-01-27T06:54:15;2.72;;;1.30;;
81864;SDS011;71313;43.514;1.500;2024-01-27T06:56:40;4.90;;;1.80;;
81864;SDS011;71313;43.514;1.500;2024-01-27T06:59:05;6.78;;;1.70;;
81864;SDS011;71313;43.514;1.500;2024-01-27T07:01:31;3.83;;;1.70;;
81864;SDS011;71313;43.514;1.500;2024-01-27T07:03:56;4.05;;;1.65;;
81864;SDS011;71313;43.514;1.500;2024-01-27T07:06:21;4.68;;;1.55;;
81864;SDS011;71313;43.514;1.500;2024-01-27T07:08:47;4.38;;;1.45;;
81864;SDS011;71313;43.514;1.500;2024-01-27T07:11:12;6.10;;;1.85;;
81864;SDS011;71313;43.514;1.500;2024-01-27T07:13:38;5.60;;;1.40;;
81864;SDS011;71313;43.514;1.500;2024-01-27T07:16:04;4.70;;;1.75;;
81864;SDS011;71313;43.514;1.500;2024-01-27T07:18:30;5.13;;;1.60;;
81864;SDS011;71313;43.514;1.500;2024-01-27T07:20:55;7.32;;;2.20;;
81864;SDS011;71313;43.514;1.500;2024-01-27T07:23:24;8.32;;;1.73;;
81864;SDS011;71313;43.514;1.500;2024-01-27T07:25:50;6.32;;;1.70;;
81864;SDS011;71313;43.514;1.500;2024-01-27T07:28:15;4.47;;;1.77;;
81864;SDS011;71313;43.514;1.500;2024-01-27T07:30:43;3.95;;;2.17;;
81864;SDS011;71313;43.514;1.500;2024-01-27T07:33:09;7.82;;;2.03;;
81864;SDS011;71313;43.514;1.500;2024-01-27T07:35:34;3.67;;;1.60;;
81864;SDS011;71313;43.514;1.500;2024-01-27T07:37:59;4.88;;;1.85;;
81864;SDS011;71313;43.514;1.500;2024-01-27T07:40:25;5.85;;;2.10;;
81864;SDS011;71313;43.514;1.500;2024-01-27T07:42:50;2.83;;;1.30;;
81864;SDS011;71313;43.514;1.500;2024-01-27T07:45:16;4.60;;;1.45;;
81864;SDS011;71313;43.514;1.500;2024-01-27T07:47:41;3.00;;;1.30;;
81864;SDS011;71313;43.514;1.500;2024-01-27T07:50:07;18.00;;;2.33;;
81864;SDS011;71313;43.514;1.500;2024-01-27T07:52:34;4.22;;;1.40;;
81864;SDS011;71313;43.514;1.500;2024-01-27T07:55:00;4.55;;;1.27;;
81864;SDS011;71313;43.514;1.500;2024-01-27T07:57:25;4.15;;;2.03;;
81864;SDS011;71313;43.514;1.500;2024-01-27T07:59:51;3.17;;;1.50;;
81864;SDS011;71313;43.514;1.500;2024-01-27T08:02:16;4.65;;;1.75;;
81864;SDS011;71313;43.514;1.500;2024-01-27T08:04:41;5.72;;;1.60;;
81864;SDS011;71313;43.514;1.500;2024-01-27T08:07:07;6.95;;;1.85;;
81864;SDS011;71313;43.514;1.500;2024-01-27T08:09:34;9.63;;;2.30;;
81864;SDS011;71313;43.514;1.500;2024-01-27T08:12:00;4.45;;;1.60;;
81864;SDS011;71313;43.514;1.500;2024-01-27T08:14:27;8.93;;;1.80;;
81864;SDS011;71313;43.514;1.500;2024-01-27T08:16:54;8.93;;;2.70;;
81864;SDS011;71313;43.514;1.500;2024-01-27T08:19:20;3.60;;;1.80;;
81864;SDS011;71313;43.514;1.500;2024-01-27T08:21:46;9.57;;;2.08;;
81864;SDS011;71313;43.514;1.500;2024-01-27T08:24:12;3.90;;;1.73;;
81864;SDS011;71313;43.514;1.500;2024-01-27T08:26:38;5.75;;;1.80;;
81864;SDS011;71313;43.514;1.500;2024-01-27T08:29:04;3.72;;;1.50;;
81864;SDS011;71313;43.514;1.500;2024-01-27T08:31:29;5.93;;;2.00;;
81864;SDS011;71313;43.514;1.500;2024-01-27T08:33:55;5.15;;;1.73;;
81864;SDS011;71313;43.514;1.500;2024-01-27T08:36:20;5.75;;;1.70;;
81864;SDS011;71313;43.514;1.500;2024-01-27T08:38:45;6.93;;;2.00;;
81864;SDS011;71313;43.514;1.500;2024-01-27T08:41:11;5.47;;;1.70;;
81864;SDS011;71313;43.514;1.500;2024-01-27T08:43:37;4.63;;;1.50;;
81864;SDS011;71313;43.514;1.500;2024-01-27T08:46:02;6.70;;;1.70;;
81864;SDS011;71313;43.514;1.500;2024-01-27T08:48:28;5.25;;;1.67;;
81864;SDS011;71313;43.514;1.500;2024-01-27T08:50:53;6.53;;;1.42;;
81864;SDS011;71313;43.514;1.500;2024-01-27T08:53:19;9.00;;;2.10;;
81864;SDS011;71313;43.514;1.500;2024-01-27T08:55:44;4.07;;;2.10;;
81864;SDS011;71313;43.514;1.500;2024-01-27T08:58:10;3.83;;;2.00;;
81864;SDS011;71313;43.514;1.500;2024-01-27T09:00:35;12.07;;;2.60;;
81864;SDS011;71313;43.514;1.500;2024-01-27T09:03:00;6.75;;;2.67;;
81864;SDS011;71313;43.514;1.500;2024-01-27T09:05:27;11.65;;;3.28;;
81864;SDS011;71313;43.514;1.500;2024-01-27T09:07:53;10.35;;;3.20;;
81864;SDS011;71313;43.514;1.500;2024-01-27T09:10:18;7.30;;;3.20;;
81864;SDS011;71313;43.514;1.500;2024-01-27T09:12:44;10.32;;;2.67;;
81864;SDS011;71313;43.514;1.500;2024-01-27T09:15:09;8.57;;;3.10;;
81864;SDS011;71313;43.514;1.500;2024-01-27T09:17:35;8.73;;;3.20;;
81864;SDS011;71313;43.514;1.500;2024-01-27T09:20:01;6.43;;;3.60;;
81864;SDS011;71313;43.514;1.500;2024-01-27T09:22:26;10.80;;;3.40;;
81864;SDS011;71313;43.514;1.500;2024-01-27T09:24:51;17.63;;;4.20;;
81864;SDS011;71313;43.514;1.500;2024-01-27T09:27:18;9.05;;;3.50;;
81864;SDS011;71313;43.514;1.500;2024-01-27T09:29:43;8.60;;;3.20;;
81864;SDS011;71313;43.514;1.500;2024-01-27T09:32:09;7.15;;;3.10;;
81864;SDS011;71313;43.514;1.500;2024-01-27T09:34:34;11.15;;;3.47;;
81864;SDS011;71313;43.514;1.500;2024-01-27T09:37:00;5.13;;;2.70;;
81864;SDS011;71313;43.514;1.500;2024-01-27T09:39:26;6.95;;;2.30;;
81864;SDS011;71313;43.514;1.500;2024-01-27T09:41:51;6.32;;;2.58;;
81864;SDS011;71313;43.514;1.500;2024-01-27T09:44:19;8.45;;;2.58;;
81864;SDS011;71313;43.514;1.500;2024-01-27T09:46:45;5.22;;;2.30;;
81864;SDS011;71313;43.514;1.500;2024-01-27T09:49:12;3.78;;;1.90;;
81864;SDS011;71313;43.514;1.500;2024-01-27T09:51:38;6.80;;;2.15;;
81864;SDS011;71313;43.514;1.500;2024-01-27T09:54:06;7.70;;;2.30;;
81864;SDS011;71313;43.514;1.500;2024-01-27T09:56:31;4.30;;;2.10;;
81864;SDS011;71313;43.514;1.500;2024-01-27T09:58:57;3.25;;;1.88;;
81864;SDS011;71313;43.514;1.500;2024-01-27T10:01:24;3.45;;;1.85;;
81864;SDS011;71313;43.514;1.500;2024-01-27T10:03:52;4.25;;;2.17;;
81864;SDS011;71313;43.514;1.500;2024-01-27T10:06:18;5.15;;;1.98;;
81864;SDS011;71313;43.514;1.500;2024-01-27T10:08:53;6.00;;;2.05;;
81864;SDS011;71313;43.514;1.500;2024-01-27T10:11:20;5.07;;;2.15;;
81864;SDS011;71313;43.514;1.500;2024-01-27T10:13:53;9.60;;;2.58;;
81864;SDS011;71313;43.514;1.500;2024-01-27T10:18:44;3.33;;;1.95;;
81864;SDS011;71313;43.514;1.500;2024-01-27T10:21:13;4.60;;;2.03;;
81864;SDS011;71313;43.514;1.500;2024-01-27T10:23:45;3.85;;;2.10;;
81864;SDS011;71313;43.514;1.500;2024-01-27T10:26:11;4.38;;;2.10;;
81864;SDS011;71313;43.514;1.500;2024-01-27T10:28:37;6.35;;;2.30;;
81864;SDS011;71313;43.514;1.500;2024-01-27T10:31:09;12.60;;;2.30;;
81864;SDS011;71313;43.514;1.500;2024-01-27T10:33:34;3.08;;;1.98;;
81864;SDS011;71313;43.514;1.500;2024-01-27T10:36:00;2.63;;;1.90;;
81864;SDS011;71313;43.514;1.500;2024-01-27T10:38:37;5.65;;;2.30;;
81864;SDS011;71313;43.514;1.500;2024-01-27T10:41:04;7.30;;;2.28;;
81864;SDS011;71313;43.514;1.500;2024-01-27T10:43:38;4.13;;;2.22;;
81864;SDS011;71313;43.514;1.500;2024-01-27T10:46:05;5.90;;;2.40;;
81864;SDS011;71313;43.514;1.500;2024-01-27T10:48:33;5.18;;;2.78;;
81864;SDS011;71313;43.514;1.500;2024-01-27T10:51:01;5.60;;;2.17;;
81864;SDS011;71313;43.514;1.500;2024-01-27T10:53:32;4.72;;;2.50;;
81864;SDS011;71313;43.514;1.500;2024-01-27T10:56:00;4.25;;;2.22;;
81864;SDS011;71313;43.514;1.500;2024-01-27T10:58:29;5.13;;;2.38;;
81864;SDS011;71313;43.514;1.500;2024-01-27T11:00:56;3.83;;;2.05;;
81864;SDS011;71313;43.514;1.500;2024-01-27T11:03:23;4.13;;;2.50;;
81864;SDS011;71313;43.514;1.500;2024-01-27T11:05:50;6.25;;;2.72;;
81864;SDS011;71313;43.514;1.500;2024-01-27T11:08:17;6.50;;;2.40;;
81864;SDS011;71313;43.514;1.500;2024-01-27T11:10:43;6.18;;;2.65;;
81864;SDS011;71313;43.514;1.500;2024-01-27T11:13:09;4.70;;;2.80;;
81864;SDS011;71313;43.514;1.500;2024-01-27T11:15:34;3.90;;;2.40;;
81864;SDS011;71313;43.514;1.500;2024-01-27T11:18:00;4.93;;;2.53;;
81864;SDS011;71313;43.514;1.500;2024-01-27T11:20:27;5.60;;;2.60;;
81864;SDS011;71313;43.514;1.500;2024-01-27T11:22:52;6.15;;;3.15;;
81864;SDS011;71313;43.514;1.500;2024-01-27T11:25:19;3.72;;;2.40;;
81864;SDS011;71313;43.514;1.500;2024-01-27T11:27:45;5.78;;;2.83;;
81864;SDS011;71313;43.514;1.500;2024-01-27T11:30:27;6.90;;;2.80;;
81864;SDS011;71313;43.514;1.500;2024-01-27T11:32:54;4.93;;;2.78;;
81864;SDS011;71313;43.514;1.500;2024-01-27T11:35:21;5.97;;;3.30;;
81864;SDS011;71313;43.514;1.500;2024-01-27T11:37:47;4.65;;;2.55;;
81864;SDS011;71313;43.514;1.500;2024-01-27T11:40:13;4.22;;;2.80;;
81864;SDS011;71313;43.514;1.500;2024-01-27T11:42:39;4.70;;;3.20;;
81864;SDS011;71313;43.514;1.500;2024-01-27T11:45:04;6.18;;;3.20;;
81864;SDS011;71313;43.514;1.500;2024-01-27T11:47:30;4.95;;;2.80;;
81864;SDS011;71313;43.514;1.500;2024-01-27T11:49:55;4.82;;;3.00;;
81864;SDS011;71313;43.514;1.500;2024-01-27T11:52:22;5.10;;;2.60;;
81864;SDS011;71313;43.514;1.500;2024-01-27T11:54:58;4.05;;;2.45;;
81864;SDS011;71313;43.514;1.500;2024-01-27T11:57:24;3.90;;;2.85;;
81864;SDS011;71313;43.514;1.500;2024-01-27T11:59:51;4.90;;;2.85;;
81864;SDS011;71313;43.514;1.500;2024-01-27T12:02:17;3.83;;;2.55;;
81864;SDS011;71313;43.514;1.500;2024-01-27T12:04:43;3.92;;;2.60;;
81864;SDS011;71313;43.514;1.500;2024-01-27T12:07:08;5.35;;;2.78;;
81864;SDS011;71313;43.514;1.500;2024-01-27T12:09:35;4.90;;;2.67;;
81864;SDS011;71313;43.514;1.500;2024-01-27T12:12:01;4.55;;;2.97;;
81864;SDS011;71313;43.514;1.500;2024-01-27T12:14:37;6.03;;;3.28;;
81864;SDS011;71313;43.514;1.500;2024-01-27T12:17:08;4.70;;;3.17;;
81864;SDS011;71313;43.514;1.500;2024-01-27T12:19:34;6.18;;;3.03;;
81864;SDS011;71313;43.514;1.500;2024-01-27T12:22:01;4.50;;;3.20;;
81864;SDS011;71313;43.514;1.500;2024-01-27T12:24:27;4.47;;;3.05;;
81864;SDS011;71313;43.514;1.500;2024-01-27T12:26:52;4.40;;;3.10;;
81864;SDS011;71313;43.514;1.500;2024-01-27T12:29:19;6.00;;;3.22;;
81864;SDS011;71313;43.514;1.500;2024-01-27T12:31:45;4.97;;;3.38;;
81864;SDS011;71313;43.514;1.500;2024-01-27T12:34:11;4.35;;;3.30;;
81864;SDS011;71313;43.514;1.500;2024-01-27T12:36:40;5.93;;;3.40;;
81864;SDS011;71313;43.514;1.500;2024-01-27T12:39:08;5.43;;;3.60;;
81864;SDS011;71313;43.514;1.500;2024-01-27T12:41:34;5.38;;;3.33;;
81864;SDS011;71313;43.514;1.500;2024-01-27T12:44:00;7.80;;;4.32;;
81864;SDS011;71313;43.514;1.500;2024-01-27T12:46:26;5.38;;;3.78;;
81864;SDS011;71313;43.514;1.500;2024-01-27T12:48:52;5.97;;;3.88;;
81864;SDS011;71313;43.514;1.500;2024-01-27T12:51:18;6.25;;;3.67;;
81864;SDS011;71313;43.514;1.500;2024-01-27T12:53:44;6.53;;;4.25;;
81864;SDS011;71313;43.514;1.500;2024-01-27T12:56:10;7.32;;;4.22;;
81864;SDS011;71313;43.514;1.500;2024-01-27T12:58:36;6.45;;;4.03;;
81864;SDS011;71313;43.514;1.500;2024-01-27T13:01:02;6.28;;;4.10;;
81864;SDS011;71313;43.514;1.500;2024-01-27T13:03:27;7.38;;;4.30;;
81864;SDS011;71313;43.514;1.500;2024-01-27T13:05:53;7.18;;;4.55;;
81864;SDS011;71313;43.514;1.500;2024-01-27T13:08:19;7.63;;;4.80;;
81864;SDS011;71313;43.514;1.500;2024-01-27T13:10:45;7.95;;;4.97;;
81864;SDS011;71313;43.514;1.500;2024-01-27T13:13:10;7.15;;;4.63;;
81864;SDS011;71313;43.514;1.500;2024-01-27T13:15:35;7.55;;;4.78;;
81864;SDS011;71313;43.514;1.500;2024-01-27T13:18:01;10.25;;;4.95;;
81864;SDS011;71313;43.514;1.500;2024-01-27T13:20:26;7.35;;;4.63;;
81864;SDS011;71313;43.514;1.500;2024-01-27T13:22:51;6.50;;;4.72;;
81864;SDS011;71313;43.514;1.500;2024-01-27T13:25:18;7.32;;;4.78;;
81864;SDS011;71313;43.514;1.500;2024-01-27T13:27:44;8.68;;;4.97;;
81864;SDS011;71313;43.514;1.500;2024-01-27T13:30:11;7.75;;;4.53;;
81864;SDS011;71313;43.514;1.500;2024-01-27T13:32:37;7.53;;;4.63;;
81864;SDS011;71313;43.514;1.500;2024-01-27T13:35:02;6.95;;;4.22;;
81864;SDS011;71313;43.514;1.500;2024-01-27T13:37:28;6.82;;;4.50;;
81864;SDS011;71313;43.514;1.500;2024-01-27T13:39:58;6.07;;;3.95;;
81864;SDS011;71313;43.514;1.500;2024-01-27T13:42:24;6.38;;;4.05;;
81864;SDS011;71313;43.514;1.500;2024-01-27T13:44:49;6.55;;;4.18;;
81864;SDS011;71313;43.514;1.500;2024-01-27T13:47:15;6.18;;;4.32;;
81864;SDS011;71313;43.514;1.500;2024-01-27T13:49:41;5.88;;;4.00;;
81864;SDS011;71313;43.514;1.500;2024-01-27T13:52:06;5.95;;;3.63;;
81864;SDS011;71313;43.514;1.500;2024-01-27T13:54:32;6.85;;;4.03;;
81864;SDS011;71313;43.514;1.500;2024-01-27T13:56:59;5.38;;;4.03;;
81864;SDS011;71313;43.514;1.500;2024-01-27T13:59:25;6.65;;;4.20;;
81864;SDS011;71313;43.514;1.500;2024-01-27T14:01:51;6.30;;;4.30;;
81864;SDS011;71313;43.514;1.500;2024-01-27T14:04:18;6.13;;;3.92;;
81864;SDS011;71313;43.514;1.500;2024-01-27T14:06:43;7.40;;;4.75;;
81864;SDS011;71313;43.514;1.500;2024-01-27T14:09:08;7.93;;;4.97;;
81864;SDS011;71313;43.514;1.500;2024-01-27T14:11:34;7.22;;;4.07;;
81864;SDS011;71313;43.514;1.500;2024-01-27T14:13:59;6.65;;;4.43;;
81864;SDS011;71313;43.514;1.500;2024-01-27T14:16:25;6.18;;;4.10;;
81864;SDS011;71313;43.514;1.500;2024-01-27T14:18:51;5.53;;;4.13;;
81864;SDS011;71313;43.514;1.500;2024-01-27T14:21:16;5.32;;;4.03;;
81864;SDS011;71313;43.514;1.500;2024-01-27T14:23:42;5.65;;;4.25;;
81864;SDS011;71313;43.514;1.500;2024-01-27T14:26:07;6.75;;;3.97;;
81864;SDS011;71313;43.514;1.500;2024-01-27T14:28:39;5.10;;;4.00;;
81864;SDS011;71313;43.514;1.500;2024-01-27T14:31:05;7.68;;;4.50;;
81864;SDS011;71313;43.514;1.500;2024-01-27T14:33:31;6.10;;;4.15;;
81864;SDS011;71313;43.514;1.500;2024-01-27T14:35:56;5.78;;;4.50;;